TimeEDT,TemperatureF,Dew PointF,Humidity,Sea Level PressureIn,VisibilityMPH,Wind Direction,Wind SpeedMPH,Gust SpeedMPH,PrecipitationIn,Events,Conditions,WindDirDegrees,DateUTC
12:15 AM,35.6,31.5,85,29.92,10.0,Calm,Calm,-,N/A,,Clear,0,2012-10-16 04:15:00
12:35 AM,34.0,30.7,88,29.92,10.0,Calm,Calm,-,N/A,,Clear,0,2012-10-16 04:35:00
12:55 AM,33.6,31.1,90,29.92,10.0,Calm,Calm,-,N/A,,Clear,0,2012-10-16 04:55:00
1:15 AM,32.4,30.0,91,29.92,10.0,Calm,Calm,-,N/A,,Clear,0,2012-10-16 05:15:00
1:35 AM,32.5,30.4,92,29.92,10.0,Calm,Calm,-,N/A,,Clear,0,2012-10-16 05:35:00
1:55 AM,32.0,30.0,92,29.93,10.0,Calm,Calm,-,N/A,,Clear,0,2012-10-16 05:55:00
2:15 AM,32.0,30.4,94,29.92,10.0,Calm,Calm,-,N/A,,Clear,0,2012-10-16 06:15:00
2:35 AM,32.2,30.4,93,29.92,10.0,Calm,Calm,-,N/A,,Clear,0,2012-10-16 06:35:00
2:55 AM,32.9,31.1,93,29.92,10.0,Calm,Calm,-,N/A,,Clear,0,2012-10-16 06:55:00
3:15 AM,32.7,30.9,93,29.92,10.0,Calm,Calm,-,N/A,,Clear,0,2012-10-16 07:15:00
3:35 AM,32.5,30.9,94,29.92,10.0,Calm,Calm,-,N/A,,Clear,0,2012-10-16 07:35:00
3:55 AM,32.0,30.0,92,29.92,10.0,Calm,Calm,-,N/A,,Clear,0,2012-10-16 07:55:00
4:15 AM,32.2,30.6,94,29.91,10.0,Calm,Calm,-,N/A,,Clear,0,2012-10-16 08:15:00
4:35 AM,32.0,30.2,93,29.91,10.0,Calm,Calm,-,N/A,,Clear,0,2012-10-16 08:35:00
4:55 AM,31.6,29.8,93,29.91,10.0,Calm,Calm,-,N/A,,Clear,0,2012-10-16 08:55:00
5:15 AM,31.8,30.0,93,29.91,10.0,Calm,Calm,-,N/A,,Clear,0,2012-10-16 09:15:00
5:35 AM,31.8,30.0,93,29.90,10.0,Calm,Calm,-,N/A,,Clear,0,2012-10-16 09:35:00
5:55 AM,32.2,30.9,95,29.90,10.0,Calm,Calm,-,N/A,,Clear,0,2012-10-16 09:55:00
6:15 AM,32.9,31.1,93,29.90,10.0,Calm,Calm,-,N/A,,Clear,0,2012-10-16 10:15:00
6:35 AM,32.9,31.5,94,29.89,10.0,East,3.5,-,N/A,,Clear,90,2012-10-16 10:35:00
6:55 AM,33.1,31.8,95,29.89,10.0,Calm,Calm,-,N/A,,Scattered Clouds,0,2012-10-16 10:55:00
7:15 AM,32.4,30.9,94,29.88,10.0,Calm,Calm,-,N/A,,Mostly Cloudy,0,2012-10-16 11:15:00
7:35 AM,33.1,31.6,94,29.88,10.0,Calm,Calm,-,N/A,,Scattered Clouds,0,2012-10-16 11:35:00
8:15 AM,33.6,32.0,94,29.87,10.0,Calm,Calm,-,N/A,,Overcast,0,2012-10-16 12:15:00
8:35 AM,36.0,34.2,93,29.87,10.0,Calm,Calm,-,N/A,,Overcast,0,2012-10-16 12:35:00
8:55 AM,38.5,36.5,93,29.87,10.0,SSE,3.5,-,N/A,,Overcast,150,2012-10-16 12:55:00
9:15 AM,45.1,42.8,91,29.87,10.0,South,3.5,-,N/A,,Overcast,180,2012-10-16 13:15:00
9:35 AM,46.8,41.5,82,29.86,10.0,South,5.8,-,N/A,,Overcast,170,2012-10-16 13:35:00
9:55 AM,47.5,41.5,80,29.85,10.0,South,6.9,-,N/A,,Overcast,170,2012-10-16 13:55:00
10:15 AM,48.7,42.6,79,29.84,10.0,South,8.1,-,N/A,,Overcast,190,2012-10-16 14:15:00
10:35 AM,49.5,43.0,78,29.84,10.0,South,8.1,-,N/A,,Overcast,190,2012-10-16 14:35:00
10:55 AM,50.5,43.7,77,29.83,10.0,SSE,11.5,-,N/A,,Overcast,160,2012-10-16 14:55:00
11:15 AM,50.9,44.1,77,29.81,10.0,South,6.9,-,N/A,Rain,Light Rain,170,2012-10-16 15:15:00
11:35 AM,50.5,44.2,79,29.81,10.0,South,5.8,-,N/A,,Light Drizzle,190,2012-10-16 15:35:00
11:55 AM,50.2,44.1,79,29.81,10.0,South,6.9,16.1,N/A,,Light Drizzle,190,2012-10-16 15:55:00
12:15 PM,49.5,44.1,82,29.81,10.0,South,9.2,-,N/A,Rain,Rain,190,2012-10-16 16:15:00
12:35 PM,49.6,45.0,84,29.80,10.0,South,8.1,-,N/A,Rain,Rain,180,2012-10-16 16:35:00
12:55 PM,49.5,45.1,85,29.80,10.0,South,8.1,-,N/A,,Drizzle,190,2012-10-16 16:55:00
1:15 PM,49.8,45.7,86,29.80,7.0,South,6.9,-,N/A,Rain,Rain,190,2012-10-16 17:15:00
1:35 PM,50.0,46.2,87,29.79,7.0,SSW,4.6,-,N/A,,Drizzle,200,2012-10-16 17:35:00
1:55 PM,50.5,46.8,87,29.78,10.0,South,4.6,-,N/A,Rain,Light Rain,180,2012-10-16 17:55:00
2:15 PM,50.5,46.8,87,29.77,10.0,South,4.6,-,N/A,,Drizzle,170,2012-10-16 18:15:00
2:35 PM,50.5,46.6,86,29.76,7.0,South,5.8,-,N/A,,Drizzle,180,2012-10-16 18:35:00
2:55 PM,50.5,46.4,86,29.75,10.0,SSE,4.6,-,N/A,,Drizzle,150,2012-10-16 18:55:00
3:15 PM,50.5,46.6,86,29.74,10.0,SE,3.5,-,N/A,,Drizzle,140,2012-10-16 19:15:00
3:35 PM,50.9,46.6,85,29.73,10.0,SE,4.6,-,N/A,,Overcast,130,2012-10-16 19:35:00
3:55 PM,51.6,46.8,83,29.74,10.0,South,3.5,-,N/A,,Overcast,170,2012-10-16 19:55:00
4:15 PM,52.0,46.6,82,29.73,10.0,Calm,Calm,-,N/A,,Overcast,0,2012-10-16 20:15:00
4:35 PM,52.5,46.2,79,29.71,10.0,SE,5.8,-,N/A,,Overcast,130,2012-10-16 20:35:00
4:55 PM,53.1,46.0,77,29.70,10.0,SE,8.1,-,N/A,,Overcast,130,2012-10-16 20:55:00
5:15 PM,53.1,45.0,74,29.68,10.0,SE,5.8,-,N/A,,Overcast,140,2012-10-16 21:15:00
5:35 PM,53.4,44.4,72,29.66,10.0,SE,10.4,16.1,N/A,,Overcast,140,2012-10-16 21:35:00
5:55 PM,54.5,43.9,67,29.68,10.0,Calm,Calm,-,N/A,,Mostly Cloudy,0,2012-10-16 21:55:00
6:15 PM,54.5,43.7,67,29.68,10.0,Calm,Calm,-,N/A,,Scattered Clouds,0,2012-10-16 22:15:00
6:34 PM,52.7,43.7,71,29.67,10.0,SE,4.6,-,N/A,,Scattered Clouds,130,2012-10-16 22:34:00
6:55 PM,52.7,43.7,71,29.66,10.0,ESE,5.8,-,N/A,,Scattered Clouds,120,2012-10-16 22:55:00
7:15 PM,52.9,43.9,71,29.66,10.0,SE,4.6,-,N/A,,Mostly Cloudy,140,2012-10-16 23:15:00
7:35 PM,53.2,43.9,71,29.65,10.0,SE,6.9,-,N/A,,Overcast,140,2012-10-16 23:35:00
7:55 PM,53.4,44.1,71,29.65,10.0,ESE,4.6,-,N/A,,Mostly Cloudy,120,2012-10-16 23:55:00
8:15 PM,53.6,43.9,70,29.64,10.0,SE,4.6,-,N/A,,Scattered Clouds,130,2012-10-17 00:15:00
8:35 PM,54.5,43.0,65,29.64,10.0,SE,6.9,-,N/A,,Mostly Cloudy,140,2012-10-17 00:35:00
8:55 PM,54.5,42.8,65,29.63,10.0,SE,4.6,-,N/A,,Scattered Clouds,140,2012-10-17 00:55:00
9:15 PM,54.5,42.8,65,29.63,10.0,SE,9.2,-,N/A,,Clear,140,2012-10-17 01:15:00
9:35 PM,54.5,42.4,64,29.63,10.0,SE,8.1,-,N/A,,Scattered Clouds,140,2012-10-17 01:35:00
9:55 PM,54.3,42.1,63,29.63,10.0,SE,8.1,-,N/A,,Mostly Cloudy,140,2012-10-17 01:55:00
10:15 PM,53.6,42.4,66,29.64,10.0,SSE,6.9,-,N/A,,Overcast,160,2012-10-17 02:15:00
10:35 PM,53.6,42.8,67,29.63,10.0,SSE,9.2,-,N/A,,Scattered Clouds,150,2012-10-17 02:35:00
10:55 PM,53.6,42.4,66,29.62,10.0,SSE,9.2,-,N/A,,Scattered Clouds,150,2012-10-17 02:55:00
11:35 PM,53.6,43.3,68,29.62,10.0,SE,10.4,-,N/A,,Clear,140,2012-10-17 03:35:00
11:55 PM,54.5,43.0,65,29.61,10.0,SSE,11.5,16.1,N/A,,Clear,150,2012-10-17 03:55:00